GFA506 OMDB-OBBI
Flight info
| Callsign | GFA506 |
|---|---|
| Flight time | 0h 45m |
| Altitude | 26000 |
| Route | NABIX3F NABIX P699 ORMID M556 ORDIG ORDIG1 |
| Aircraft | A21N/M-VGDW/C |
Departure
| Time | 2026-04-25 01:18 |
|---|---|
| Airport | Dubai International Airport (OMDB) |
Arrival
| Time | 2026-04-25 02:03 |
|---|---|
| Airport | Bahrain International Airport (OBBI) |
| Time | Latitude | Longitude | Altitude | Speed | Heading |
|---|---|---|---|---|---|
| 2026-04-25 00:42 | 25.25588 | 55.34775 | 15 ft | 0 kts | 301° |
| 2026-04-25 01:01 | 25.25587 | 55.34775 | 15 ft | 1 kts | 301° |
| 2026-04-25 01:01 | 25.25575 | 55.34798 | 18 ft | 4 kts | 302° |
| 2026-04-25 01:01 | 25.25560 | 55.34823 | 17 ft | 4 kts | 306° |
| 2026-04-25 01:01 | 25.25545 | 55.34842 | 18 ft | 3 kts | 323° |
| 2026-04-25 01:02 | 25.25533 | 55.34849 | 15 ft | 2 kts | 356° |
| 2026-04-25 01:02 | 25.25522 | 55.34847 | 17 ft | 2 kts | 20° |
| 2026-04-25 01:02 | 25.25511 | 55.34842 | 15 ft | 2 kts | 29° |
| 2026-04-25 01:02 | 25.25502 | 55.34836 | 15 ft | 2 kts | 31° |
| 2026-04-25 01:03 | 25.25490 | 55.34828 | 18 ft | 3 kts | 30° |
| 2026-04-25 01:03 | 25.25478 | 55.34821 | 16 ft | 0 kts | 27° |
| 2026-04-25 01:07 | 25.25487 | 55.34827 | 18 ft | 3 kts | 30° |
| 2026-04-25 01:07 | 25.25515 | 55.34845 | 17 ft | 6 kts | 31° |
| 2026-04-25 01:07 | 25.25563 | 55.34877 | 15 ft | 10 kts | 31° |
| 2026-04-25 01:08 | 25.25631 | 55.34922 | 15 ft | 13 kts | 31° |
| 2026-04-25 01:08 | 25.25717 | 55.34979 | 15 ft | 16 kts | 31° |
| 2026-04-25 01:08 | 25.25819 | 55.35047 | 15 ft | 18 kts | 31° |
| 2026-04-25 01:08 | 25.25935 | 55.35124 | 15 ft | 21 kts | 31° |
| 2026-04-25 01:09 | 25.26066 | 55.35211 | 15 ft | 23 kts | 31° |
| 2026-04-25 01:09 | 25.26081 | 55.35369 | 15 ft | 25 kts | 124° |
| 2026-04-25 01:09 | 25.25982 | 55.35540 | 15 ft | 28 kts | 118° |
| 2026-04-25 01:09 | 25.25880 | 55.35729 | 15 ft | 30 kts | 122° |
| 2026-04-25 01:10 | 25.25766 | 55.35926 | 16 ft | 31 kts | 122° |
| 2026-04-25 01:10 | 25.25651 | 55.36136 | 16 ft | 31 kts | 121° |
| 2026-04-25 01:10 | 25.25546 | 55.36326 | 15 ft | 30 kts | 121° |
| 2026-04-25 01:10 | 25.25434 | 55.36530 | 16 ft | 32 kts | 121° |
| 2026-04-25 01:11 | 25.25315 | 55.36743 | 15 ft | 33 kts | 121° |
| 2026-04-25 01:11 | 25.25192 | 55.36965 | 16 ft | 35 kts | 121° |
| 2026-04-25 01:11 | 25.25063 | 55.37198 | 15 ft | 36 kts | 121° |
| 2026-04-25 01:11 | 25.24938 | 55.37423 | 15 ft | 29 kts | 121° |
| 2026-04-25 01:12 | 25.24836 | 55.37609 | 16 ft | 29 kts | 121° |
| 2026-04-25 01:12 | 25.24747 | 55.37771 | 16 ft | 16 kts | 121° |
| 2026-04-25 01:12 | 25.24715 | 55.37830 | 18 ft | 0 kts | 121° |
| 2026-04-25 01:13 | 25.24710 | 55.37839 | 17 ft | 3 kts | 121° |
| 2026-04-25 01:13 | 25.24694 | 55.37869 | 17 ft | 6 kts | 121° |
| 2026-04-25 01:13 | 25.24675 | 55.37918 | 17 ft | 8 kts | 96° |
| 2026-04-25 01:13 | 25.24695 | 55.37970 | 17 ft | 0 kts | 34° |
| 2026-04-25 01:15 | 25.24711 | 55.37981 | 19 ft | 5 kts | 34° |
| 2026-04-25 01:15 | 25.24750 | 55.38005 | 17 ft | 8 kts | 21° |
| 2026-04-25 01:15 | 25.24813 | 55.38000 | 17 ft | 11 kts | 326° |
| 2026-04-25 01:15 | 25.24849 | 55.37952 | 17 ft | 0 kts | 301° |
| 2026-04-25 01:17 | 25.24869 | 55.37916 | 18 ft | 27 kts | 301° |
| 2026-04-25 01:17 | 25.24996 | 55.37685 | 16 ft | 78 kts | 301° |
| 2026-04-25 01:17 | 25.25589 | 55.36616 | 15 ft | 161 kts | 301° |
| 2026-04-25 01:17 | 25.26226 | 55.35456 | 364 ft | 175 kts | 301° |
| 2026-04-25 01:18 | 25.26842 | 55.34301 | 1045 ft | 175 kts | 301° |
| 2026-04-25 01:18 | 25.27470 | 55.33160 | 1694 ft | 177 kts | 302° |
| 2026-04-25 01:18 | 25.28026 | 55.31894 | 2172 ft | 192 kts | 281° |
| 2026-04-25 01:18 | 25.27986 | 55.30367 | 2674 ft | 208 kts | 264° |
| 2026-04-25 01:19 | 25.27807 | 55.28678 | 3110 ft | 234 kts | 265° |
| 2026-04-25 01:19 | 25.27631 | 55.26801 | 3612 ft | 255 kts | 265° |
| 2026-04-25 01:19 | 25.27452 | 55.24802 | 4229 ft | 266 kts | 265° |
| 2026-04-25 01:19 | 25.27271 | 55.22747 | 5031 ft | 270 kts | 265° |
| 2026-04-25 01:20 | 25.27090 | 55.20671 | 5880 ft | 271 kts | 265° |
| 2026-04-25 01:20 | 25.26912 | 55.18597 | 6712 ft | 273 kts | 264° |
| 2026-04-25 01:20 | 25.26732 | 55.16521 | 7510 ft | 275 kts | 264° |
| 2026-04-25 01:20 | 25.26549 | 55.14403 | 8332 ft | 279 kts | 264° |
| 2026-04-25 01:21 | 25.26362 | 55.12256 | 9152 ft | 282 kts | 264° |
| 2026-04-25 01:21 | 25.26176 | 55.10082 | 9970 ft | 286 kts | 264° |
| 2026-04-25 01:21 | 25.25979 | 55.07833 | 10427 ft | 304 kts | 264° |
| 2026-04-25 01:21 | 25.25768 | 55.05421 | 10723 ft | 326 kts | 264° |
| 2026-04-25 01:22 | 25.25540 | 55.02842 | 11002 ft | 347 kts | 264° |
| 2026-04-25 01:22 | 25.25308 | 55.00134 | 11492 ft | 357 kts | 264° |
| 2026-04-25 01:22 | 25.25072 | 54.97385 | 12177 ft | 362 kts | 264° |
| 2026-04-25 01:22 | 25.24832 | 54.94597 | 12904 ft | 366 kts | 264° |
| 2026-04-25 01:23 | 25.24590 | 54.91824 | 13607 ft | 369 kts | 264° |
| 2026-04-25 01:23 | 25.24341 | 54.88987 | 14220 ft | 373 kts | 264° |
| 2026-04-25 01:23 | 25.24089 | 54.86120 | 14797 ft | 376 kts | 264° |
| 2026-04-25 01:23 | 25.23841 | 54.83286 | 15407 ft | 379 kts | 264° |
| 2026-04-25 01:24 | 25.23579 | 54.80319 | 16040 ft | 382 kts | 264° |
| 2026-04-25 01:24 | 25.23319 | 54.77383 | 16653 ft | 385 kts | 264° |
| 2026-04-25 01:24 | 25.23054 | 54.74431 | 17242 ft | 388 kts | 264° |
| 2026-04-25 01:24 | 25.22785 | 54.71452 | 17831 ft | 391 kts | 264° |
| 2026-04-25 01:25 | 25.22517 | 54.68451 | 18389 ft | 394 kts | 264° |
| 2026-04-25 01:25 | 25.22242 | 54.65424 | 18918 ft | 396 kts | 264° |
| 2026-04-25 01:25 | 25.21967 | 54.62392 | 19454 ft | 399 kts | 264° |
| 2026-04-25 01:25 | 25.21697 | 54.59375 | 19985 ft | 401 kts | 264° |
| 2026-04-25 01:26 | 25.21419 | 54.56299 | 20535 ft | 403 kts | 264° |
| 2026-04-25 01:26 | 25.21334 | 54.53201 | 21071 ft | 405 kts | 273° |
| 2026-04-25 01:26 | 25.21788 | 54.50115 | 21614 ft | 409 kts | 283° |
| 2026-04-25 01:26 | 25.22550 | 54.47076 | 22164 ft | 412 kts | 285° |
| 2026-04-25 01:27 | 25.23353 | 54.44026 | 22700 ft | 415 kts | 285° |
| 2026-04-25 01:27 | 25.23883 | 54.41987 | 23045 ft | 417 kts | 284° |
| 2026-04-25 01:27 | 25.24667 | 54.38896 | 23537 ft | 419 kts | 284° |
| 2026-04-25 01:28 | 25.26496 | 54.31626 | 24599 ft | 422 kts | 284° |
| 2026-04-25 01:28 | 25.27029 | 54.29527 | 25021 ft | 419 kts | 284° |
| 2026-04-25 01:28 | 25.27805 | 54.26423 | 25531 ft | 418 kts | 284° |
| 2026-04-25 01:28 | 25.28558 | 54.23372 | 25783 ft | 416 kts | 284° |
| 2026-04-25 01:29 | 25.29325 | 54.20275 | 25865 ft | 422 kts | 284° |
| 2026-04-25 01:29 | 25.30100 | 54.17141 | 25886 ft | 421 kts | 284° |
| 2026-04-25 01:29 | 25.30860 | 54.14043 | 25881 ft | 415 kts | 283° |
| 2026-04-25 01:29 | 25.31537 | 54.10951 | 25877 ft | 412 kts | 282° |
| 2026-04-25 01:30 | 25.32190 | 54.07875 | 25874 ft | 411 kts | 282° |
| 2026-04-25 01:30 | 25.32847 | 54.04802 | 25876 ft | 411 kts | 282° |
| 2026-04-25 01:30 | 25.33503 | 54.01721 | 25876 ft | 410 kts | 282° |
| 2026-04-25 01:30 | 25.34142 | 53.98689 | 25878 ft | 410 kts | 282° |
| 2026-04-25 01:31 | 25.34788 | 53.95617 | 25876 ft | 411 kts | 282° |
| 2026-04-25 01:31 | 25.35439 | 53.92538 | 25878 ft | 411 kts | 282° |
| 2026-04-25 01:31 | 25.36086 | 53.89468 | 25877 ft | 411 kts | 282° |
| 2026-04-25 01:31 | 25.36732 | 53.86390 | 25882 ft | 410 kts | 282° |
| 2026-04-25 01:32 | 25.37380 | 53.83307 | 25881 ft | 411 kts | 282° |
| 2026-04-25 01:32 | 25.38029 | 53.80226 | 25879 ft | 410 kts | 282° |
| 2026-04-25 01:32 | 25.38679 | 53.77151 | 25877 ft | 410 kts | 282° |
| 2026-04-25 01:32 | 25.39325 | 53.74077 | 25882 ft | 410 kts | 282° |
| 2026-04-25 01:33 | 25.39968 | 53.70998 | 25881 ft | 410 kts | 282° |
| 2026-04-25 01:33 | 25.40603 | 53.67958 | 25881 ft | 410 kts | 282° |
| 2026-04-25 01:33 | 25.41250 | 53.64886 | 25879 ft | 410 kts | 282° |
| 2026-04-25 01:33 | 25.41897 | 53.61797 | 25882 ft | 410 kts | 282° |
| 2026-04-25 01:34 | 25.42538 | 53.58725 | 25885 ft | 410 kts | 282° |
| 2026-04-25 01:34 | 25.43180 | 53.55653 | 25884 ft | 410 kts | 282° |
| 2026-04-25 01:34 | 25.43822 | 53.52574 | 25884 ft | 410 kts | 281° |
| 2026-04-25 01:34 | 25.44454 | 53.49485 | 25883 ft | 410 kts | 281° |
| 2026-04-25 01:35 | 25.45083 | 53.46405 | 25882 ft | 410 kts | 281° |
| 2026-04-25 01:35 | 25.45719 | 53.43324 | 25890 ft | 423 kts | 281° |
| 2026-04-25 01:35 | 25.46389 | 53.40083 | 25894 ft | 427 kts | 281° |
| 2026-04-25 01:35 | 25.47040 | 53.36938 | 25888 ft | 423 kts | 281° |
| 2026-04-25 01:36 | 25.47696 | 53.33782 | 25885 ft | 420 kts | 281° |
| 2026-04-25 01:36 | 25.48351 | 53.30647 | 25884 ft | 416 kts | 282° |
| 2026-04-25 01:36 | 25.48998 | 53.27526 | 25884 ft | 413 kts | 281° |
| 2026-04-25 01:36 | 25.49636 | 53.24426 | 25887 ft | 411 kts | 281° |
| 2026-04-25 01:37 | 25.50268 | 53.21347 | 25889 ft | 410 kts | 281° |
| 2026-04-25 01:37 | 25.50898 | 53.18270 | 25888 ft | 410 kts | 281° |
| 2026-04-25 01:37 | 25.51523 | 53.15195 | 25890 ft | 410 kts | 281° |
| 2026-04-25 01:37 | 25.52151 | 53.12111 | 25891 ft | 410 kts | 281° |
| 2026-04-25 01:38 | 25.52773 | 53.09075 | 25888 ft | 410 kts | 281° |
| 2026-04-25 01:38 | 25.53406 | 53.05996 | 25894 ft | 412 kts | 281° |
| 2026-04-25 01:38 | 25.54048 | 53.02850 | 25896 ft | 420 kts | 281° |
| 2026-04-25 01:38 | 25.54687 | 52.99693 | 25894 ft | 418 kts | 281° |
| 2026-04-25 01:39 | 25.55319 | 52.96569 | 25888 ft | 416 kts | 281° |
| 2026-04-25 01:39 | 25.55961 | 52.93459 | 25889 ft | 412 kts | 282° |
| 2026-04-25 01:39 | 25.56871 | 52.90451 | 25886 ft | 412 kts | 291° |
| 2026-04-25 01:39 | 25.58228 | 52.87643 | 25892 ft | 414 kts | 298° |
| 2026-04-25 01:40 | 25.59745 | 52.84924 | 25894 ft | 414 kts | 299° |
| 2026-04-25 01:40 | 25.61277 | 52.82216 | 25895 ft | 414 kts | 299° |
| 2026-04-25 01:40 | 25.62795 | 52.79498 | 25900 ft | 414 kts | 299° |
| 2026-04-25 01:40 | 25.64285 | 52.76816 | 25897 ft | 414 kts | 299° |
| 2026-04-25 01:41 | 25.65812 | 52.74058 | 25895 ft | 414 kts | 299° |
| 2026-04-25 01:41 | 25.67311 | 52.71370 | 25903 ft | 414 kts | 299° |
| 2026-04-25 01:41 | 25.68837 | 52.68637 | 25907 ft | 423 kts | 299° |
| 2026-04-25 01:41 | 25.70409 | 52.65798 | 25909 ft | 433 kts | 299° |
| 2026-04-25 01:42 | 25.71986 | 52.62948 | 25910 ft | 434 kts | 299° |
| 2026-04-25 01:42 | 25.73570 | 52.60085 | 25907 ft | 434 kts | 299° |
| 2026-04-25 01:42 | 25.75126 | 52.57265 | 25904 ft | 434 kts | 298° |
| 2026-04-25 01:42 | 25.76697 | 52.54395 | 25905 ft | 434 kts | 298° |
| 2026-04-25 01:43 | 25.78268 | 52.51538 | 25903 ft | 434 kts | 299° |
| 2026-04-25 01:43 | 25.79848 | 52.48675 | 25902 ft | 434 kts | 299° |
| 2026-04-25 01:43 | 25.81421 | 52.45827 | 25902 ft | 434 kts | 299° |
| 2026-04-25 01:43 | 25.82996 | 52.42961 | 25907 ft | 434 kts | 298° |
| 2026-04-25 01:44 | 25.84565 | 52.40099 | 25905 ft | 434 kts | 298° |
| 2026-04-25 01:44 | 25.86135 | 52.37242 | 25906 ft | 431 kts | 298° |
| 2026-04-25 01:44 | 25.87677 | 52.34436 | 25910 ft | 431 kts | 298° |
| 2026-04-25 01:44 | 25.89237 | 52.31592 | 25909 ft | 431 kts | 298° |
| 2026-04-25 01:45 | 25.90793 | 52.28754 | 25911 ft | 430 kts | 298° |
| 2026-04-25 01:45 | 25.92346 | 52.25911 | 25913 ft | 430 kts | 298° |
| 2026-04-25 01:45 | 25.93908 | 52.23063 | 25916 ft | 430 kts | 298° |
| 2026-04-25 01:45 | 25.95460 | 52.20225 | 25913 ft | 430 kts | 298° |
| 2026-04-25 01:46 | 25.97012 | 52.17379 | 25914 ft | 430 kts | 298° |
| 2026-04-25 01:46 | 25.98561 | 52.14535 | 25912 ft | 430 kts | 298° |
| 2026-04-25 01:46 | 26.00110 | 52.11696 | 25916 ft | 430 kts | 298° |
| 2026-04-25 01:46 | 26.01656 | 52.08865 | 25915 ft | 427 kts | 298° |
| 2026-04-25 01:47 | 26.03198 | 52.06037 | 25914 ft | 427 kts | 298° |
| 2026-04-25 01:47 | 26.04741 | 52.03218 | 25914 ft | 426 kts | 298° |
| 2026-04-25 01:47 | 26.06277 | 52.00403 | 25921 ft | 426 kts | 298° |
| 2026-04-25 01:47 | 26.07791 | 51.97621 | 25916 ft | 425 kts | 298° |
| 2026-04-25 01:48 | 26.09323 | 51.94795 | 25919 ft | 425 kts | 298° |
| 2026-04-25 01:48 | 26.10847 | 51.91975 | 25921 ft | 425 kts | 298° |
| 2026-04-25 01:48 | 26.12372 | 51.89163 | 25921 ft | 425 kts | 298° |
| 2026-04-25 01:48 | 26.13903 | 51.86343 | 25928 ft | 425 kts | 298° |
| 2026-04-25 01:49 | 26.15435 | 51.83531 | 25927 ft | 425 kts | 298° |
| 2026-04-25 01:49 | 26.16964 | 51.80715 | 25926 ft | 425 kts | 298° |
| 2026-04-25 01:49 | 26.18495 | 51.77896 | 25929 ft | 425 kts | 298° |
| 2026-04-25 01:49 | 26.20020 | 51.75089 | 25927 ft | 420 kts | 298° |
| 2026-04-25 01:50 | 26.21500 | 51.72348 | 25929 ft | 418 kts | 298° |
| 2026-04-25 01:50 | 26.22999 | 51.69575 | 25927 ft | 418 kts | 298° |
| 2026-04-25 01:50 | 26.24503 | 51.66797 | 25929 ft | 417 kts | 298° |
| 2026-04-25 01:50 | 26.25997 | 51.64026 | 25933 ft | 417 kts | 298° |
| 2026-04-25 01:51 | 26.27487 | 51.61265 | 25933 ft | 416 kts | 298° |
| 2026-04-25 01:51 | 26.28978 | 51.58507 | 25934 ft | 416 kts | 298° |
| 2026-04-25 01:51 | 26.30465 | 51.55757 | 25886 ft | 407 kts | 298° |
| 2026-04-25 01:51 | 26.31914 | 51.53069 | 25316 ft | 401 kts | 297° |
| 2026-04-25 01:52 | 26.33352 | 51.50402 | 24607 ft | 400 kts | 297° |
| 2026-04-25 01:52 | 26.34760 | 51.47777 | 23925 ft | 399 kts | 297° |
| 2026-04-25 01:52 | 26.36182 | 51.45123 | 23204 ft | 398 kts | 297° |
| 2026-04-25 01:52 | 26.37599 | 51.42482 | 22300 ft | 394 kts | 297° |
| 2026-04-25 01:53 | 26.38815 | 51.39803 | 21630 ft | 376 kts | 285° |
| 2026-04-25 01:53 | 26.39368 | 51.37053 | 21224 ft | 353 kts | 272° |
| 2026-04-25 01:53 | 26.39322 | 51.34354 | 20357 ft | 346 kts | 258° |
| 2026-04-25 01:53 | 26.38692 | 51.31763 | 19334 ft | 346 kts | 247° |
| 2026-04-25 01:54 | 26.37748 | 51.29274 | 18290 ft | 350 kts | 244° |
| 2026-04-25 01:54 | 26.36765 | 51.26777 | 17053 ft | 355 kts | 245° |
| 2026-04-25 01:54 | 26.35784 | 51.24233 | 15871 ft | 358 kts | 245° |
| 2026-04-25 01:54 | 26.34822 | 51.21685 | 14915 ft | 355 kts | 245° |
| 2026-04-25 01:55 | 26.33889 | 51.19179 | 14038 ft | 351 kts | 245° |
| 2026-04-25 01:55 | 26.32955 | 51.16671 | 13074 ft | 348 kts | 245° |
| 2026-04-25 01:55 | 26.32030 | 51.14170 | 11874 ft | 350 kts | 245° |
| 2026-04-25 01:55 | 26.31090 | 51.11643 | 10607 ft | 355 kts | 245° |
| 2026-04-25 01:56 | 26.30135 | 51.09078 | 9232 ft | 361 kts | 246° |
| 2026-04-25 01:56 | 26.29177 | 51.06503 | 7798 ft | 365 kts | 246° |
| 2026-04-25 01:56 | 26.28201 | 51.03880 | 6475 ft | 369 kts | 247° |
| 2026-04-25 01:56 | 26.27212 | 51.01226 | 5242 ft | 369 kts | 248° |
| 2026-04-25 01:57 | 26.25271 | 50.96003 | 3715 ft | 362 kts | 250° |
| 2026-04-25 01:57 | 26.24308 | 50.93408 | 3380 ft | 361 kts | 250° |
| 2026-04-25 01:57 | 26.23380 | 50.90924 | 3208 ft | 335 kts | 250° |
| 2026-04-25 01:58 | 26.22524 | 50.88621 | 3109 ft | 318 kts | 251° |
| 2026-04-25 01:58 | 26.21699 | 50.86400 | 3035 ft | 302 kts | 251° |
| 2026-04-25 01:58 | 26.20915 | 50.84296 | 2998 ft | 285 kts | 251° |
| 2026-04-25 01:58 | 26.20175 | 50.82316 | 2968 ft | 268 kts | 251° |
| 2026-04-25 01:59 | 26.19482 | 50.80462 | 2964 ft | 251 kts | 251° |
| 2026-04-25 01:59 | 26.18958 | 50.78685 | 2950 ft | 231 kts | 268° |
| 2026-04-25 01:59 | 26.19144 | 50.77047 | 2932 ft | 201 kts | 296° |
| 2026-04-25 01:59 | 26.19791 | 50.75775 | 2865 ft | 178 kts | 308° |
| 2026-04-25 02:00 | 26.20490 | 50.74693 | 2657 ft | 170 kts | 309° |
| 2026-04-25 02:00 | 26.21142 | 50.73646 | 2513 ft | 156 kts | 308° |
| 2026-04-25 02:00 | 26.21735 | 50.72641 | 2126 ft | 155 kts | 307° |
| 2026-04-25 02:00 | 26.22280 | 50.71697 | 1978 ft | 131 kts | 307° |
| 2026-04-25 02:01 | 26.22759 | 50.70871 | 1720 ft | 125 kts | 306° |
| 2026-04-25 02:01 | 26.23217 | 50.70032 | 1287 ft | 127 kts | 307° |
| 2026-04-25 02:01 | 26.23712 | 50.69214 | 1029 ft | 128 kts | 308° |
| 2026-04-25 02:01 | 26.24196 | 50.68389 | 857 ft | 127 kts | 306° |
| 2026-04-25 02:02 | 26.24645 | 50.67565 | 690 ft | 125 kts | 307° |
| 2026-04-25 02:02 | 26.25121 | 50.66745 | 439 ft | 125 kts | 308° |
| 2026-04-25 02:02 | 26.25600 | 50.65930 | 264 ft | 127 kts | 307° |
| 2026-04-25 02:02 | 26.26078 | 50.65106 | 122 ft | 126 kts | 307° |
| 2026-04-25 02:03 | 26.26539 | 50.64299 | 29 ft | 117 kts | 306° |
| 2026-04-25 02:03 | 26.26923 | 50.63647 | 22 ft | 85 kts | 303° |
| 2026-04-25 02:03 | 26.27189 | 50.63172 | 24 ft | 62 kts | 296° |
| 2026-04-25 02:03 | 26.27260 | 50.62813 | 26 ft | 20 kts | 274° |
| 2026-04-25 02:04 | 26.27224 | 50.62674 | 24 ft | 22 kts | 185° |
| 2026-04-25 02:04 | 26.27100 | 50.62767 | 26 ft | 24 kts | 124° |
| 2026-04-25 02:04 | 26.27007 | 50.62936 | 27 ft | 26 kts | 119° |
| 2026-04-25 02:04 | 26.26906 | 50.63031 | 29 ft | 12 kts | 180° |
| 2026-04-25 02:05 | 26.26859 | 50.63012 | 26 ft | 0 kts | 214° |
| 2026-04-25 02:05 | 26.26849 | 50.63005 | 28 ft | 0 kts | 213° |